createdAt,value
2022-10-09T00:00:29.000Z,99.99
2022-10-09T00:01:29.000Z,99.99
2022-10-09T00:02:29.000Z,99.99
2022-10-09T00:03:29.000Z,99.99
2022-10-09T00:04:29.000Z,99.99
2022-10-09T00:05:29.000Z,99.99
2022-10-09T00:06:29.000Z,99.99
2022-10-09T00:07:29.000Z,99.99
2022-10-09T00:08:29.000Z,99.99
2022-10-09T00:09:29.000Z,99.99
2022-10-09T00:10:29.000Z,99.99
2022-10-09T00:11:29.000Z,99.99
2022-10-09T00:12:29.000Z,99.99
2022-10-09T00:13:29.000Z,99.99
2022-10-09T00:14:29.000Z,99.99
2022-10-09T00:15:29.000Z,99.99
2022-10-09T00:16:29.000Z,99.99
2022-10-09T00:17:29.000Z,99.99
2022-10-09T00:18:29.000Z,99.99
2022-10-09T00:19:29.000Z,99.99
2022-10-09T00:20:29.000Z,99.99
2022-10-09T00:21:29.000Z,99.99
2022-10-09T00:22:29.000Z,99.99
2022-10-09T00:23:29.000Z,99.99
2022-10-09T00:24:29.000Z,99.99
2022-10-09T00:25:29.000Z,99.99
2022-10-09T00:26:29.000Z,99.99
2022-10-09T00:27:29.000Z,99.99
2022-10-09T00:28:29.000Z,99.99
2022-10-09T00:29:29.000Z,99.99
2022-10-09T00:30:29.000Z,99.99
2022-10-09T00:31:29.000Z,99.99
2022-10-09T00:32:29.000Z,99.99
2022-10-09T00:33:29.000Z,99.99
2022-10-09T00:34:29.000Z,99.99
2022-10-09T00:35:29.000Z,99.99
2022-10-09T00:36:29.000Z,99.99
2022-10-09T00:37:29.000Z,99.99
2022-10-09T00:38:29.000Z,99.99
2022-10-09T00:39:29.000Z,99.99
2022-10-09T00:40:29.000Z,99.99
2022-10-09T00:41:29.000Z,99.99
2022-10-09T00:42:29.000Z,99.99
2022-10-09T00:43:29.000Z,99.99
2022-10-09T00:44:29.000Z,99.99
2022-10-09T00:45:29.000Z,99.99
2022-10-09T00:46:29.000Z,99.99
2022-10-09T00:47:29.000Z,99.99
2022-10-09T00:48:29.000Z,99.99
2022-10-09T00:49:28.000Z,99.99
2022-10-09T00:50:28.000Z,99.99
2022-10-09T00:51:28.000Z,99.99
2022-10-09T00:52:28.000Z,99.99
2022-10-09T00:53:28.000Z,99.99
2022-10-09T00:54:28.000Z,99.99
2022-10-09T00:55:28.000Z,99.99
2022-10-09T00:56:28.000Z,99.99
2022-10-09T00:57:28.000Z,99.99
2022-10-09T00:58:28.000Z,99.99
2022-10-09T00:59:28.000Z,99.99
2022-10-09T01:00:28.000Z,99.99
2022-10-09T01:01:28.000Z,99.99
2022-10-09T01:02:28.000Z,99.99
2022-10-09T01:03:28.000Z,99.99
2022-10-09T01:04:28.000Z,99.99
2022-10-09T01:05:28.000Z,99.99
2022-10-09T01:06:28.000Z,99.99
2022-10-09T01:07:28.000Z,99.99
2022-10-09T01:08:28.000Z,99.99
2022-10-09T01:09:28.000Z,99.99
2022-10-09T01:10:28.000Z,99.99
2022-10-09T01:11:28.000Z,99.99
2022-10-09T01:12:28.000Z,99.99
2022-10-09T01:13:28.000Z,99.99
2022-10-09T01:14:28.000Z,99.99
2022-10-09T01:15:28.000Z,99.99
2022-10-09T01:16:28.000Z,99.99
2022-10-09T01:17:28.000Z,99.99
2022-10-09T01:18:28.000Z,99.99
2022-10-09T01:19:28.000Z,99.99
2022-10-09T01:20:28.000Z,99.99
2022-10-09T01:21:28.000Z,99.99
2022-10-09T01:22:28.000Z,99.99
2022-10-09T01:23:28.000Z,99.99
2022-10-09T01:24:28.000Z,99.99
2022-10-09T01:25:28.000Z,99.99
2022-10-09T01:26:28.000Z,99.99
2022-10-09T01:27:28.000Z,99.99
2022-10-09T01:28:28.000Z,99.99
2022-10-09T01:29:28.000Z,99.99
2022-10-09T01:30:28.000Z,99.99
2022-10-09T01:31:28.000Z,99.99
2022-10-09T01:32:28.000Z,99.99
2022-10-09T01:33:28.000Z,99.99
2022-10-09T01:34:28.000Z,99.99
2022-10-09T01:35:28.000Z,99.99
2022-10-09T01:36:28.000Z,99.99
2022-10-09T01:37:28.000Z,99.99
2022-10-09T01:38:28.000Z,99.99
2022-10-09T01:39:28.000Z,99.99
2022-10-09T01:40:28.000Z,99.99
2022-10-09T01:41:28.000Z,99.99
2022-10-09T01:42:28.000Z,99.99
2022-10-09T01:43:28.000Z,99.99
2022-10-09T01:44:28.000Z,99.99
2022-10-09T01:45:28.000Z,99.99
2022-10-09T01:46:28.000Z,99.99
2022-10-09T01:47:28.000Z,99.99
2022-10-09T01:48:28.000Z,99.99
2022-10-09T01:49:28.000Z,99.99
2022-10-09T01:50:28.000Z,99.99
2022-10-09T01:51:28.000Z,99.99
2022-10-09T01:52:28.000Z,99.99
2022-10-09T01:53:28.000Z,99.99
2022-10-09T01:54:28.000Z,99.99
2022-10-09T01:55:28.000Z,99.99
2022-10-09T01:56:28.000Z,99.99
2022-10-09T01:57:28.000Z,99.99
2022-10-09T01:58:28.000Z,99.99
2022-10-09T01:59:28.000Z,99.99
2022-10-09T02:00:28.000Z,99.99
2022-10-09T02:01:28.000Z,99.99
2022-10-09T02:02:28.000Z,99.99
2022-10-09T02:03:28.000Z,99.99
2022-10-09T02:04:27.000Z,99.99
2022-10-09T02:05:27.000Z,99.99
2022-10-09T02:06:27.000Z,99.99
2022-10-09T02:07:27.000Z,99.99
2022-10-09T02:08:27.000Z,99.99
2022-10-09T02:09:27.000Z,99.99
2022-10-09T02:10:27.000Z,99.99
2022-10-09T02:11:27.000Z,99.99
2022-10-09T02:12:27.000Z,99.99
2022-10-09T02:13:27.000Z,99.99
2022-10-09T02:14:27.000Z,99.99
2022-10-09T02:15:27.000Z,99.99
2022-10-09T02:16:27.000Z,99.99
2022-10-09T02:17:27.000Z,99.99
2022-10-09T02:18:27.000Z,99.99
2022-10-09T02:19:27.000Z,99.99
2022-10-09T02:20:27.000Z,99.99
2022-10-09T02:21:27.000Z,99.99
2022-10-09T02:22:27.000Z,99.99
2022-10-09T02:23:27.000Z,99.99
2022-10-09T02:24:27.000Z,99.99
2022-10-09T02:25:27.000Z,99.99
2022-10-09T02:26:27.000Z,99.99
2022-10-09T02:27:27.000Z,99.99
2022-10-09T02:28:27.000Z,99.99
2022-10-09T02:29:27.000Z,99.99
2022-10-09T02:30:27.000Z,99.99
2022-10-09T02:31:27.000Z,99.99
2022-10-09T02:32:27.000Z,99.99
2022-10-09T02:33:27.000Z,99.99
2022-10-09T02:34:27.000Z,99.99
2022-10-09T02:35:27.000Z,99.99
2022-10-09T02:36:27.000Z,99.99
2022-10-09T02:37:27.000Z,99.99
2022-10-09T02:38:27.000Z,99.99
2022-10-09T02:39:27.000Z,99.99
2022-10-09T02:40:27.000Z,99.99
2022-10-09T02:41:27.000Z,99.99
2022-10-09T02:42:27.000Z,99.99
2022-10-09T02:43:27.000Z,99.99
2022-10-09T02:44:27.000Z,99.99
2022-10-09T02:45:27.000Z,99.99
2022-10-09T02:46:27.000Z,99.99
2022-10-09T02:47:27.000Z,99.99
2022-10-09T02:48:27.000Z,99.99
2022-10-09T02:49:27.000Z,99.99
2022-10-09T02:50:27.000Z,99.99
2022-10-09T02:51:27.000Z,99.99
2022-10-09T02:52:27.000Z,99.99
2022-10-09T02:53:27.000Z,99.99
2022-10-09T02:54:27.000Z,99.99
2022-10-09T02:55:27.000Z,99.99
2022-10-09T02:56:27.000Z,99.99
2022-10-09T02:57:27.000Z,99.99
2022-10-09T02:58:27.000Z,99.99
2022-10-09T02:59:27.000Z,99.99
2022-10-09T03:00:27.000Z,99.99
2022-10-09T03:01:27.000Z,99.99
2022-10-09T03:02:27.000Z,99.99
2022-10-09T03:03:27.000Z,99.99
2022-10-09T03:04:27.000Z,99.99
2022-10-09T03:05:27.000Z,99.99
2022-10-09T03:06:27.000Z,99.99
2022-10-09T03:07:27.000Z,99.99
2022-10-09T03:08:27.000Z,99.99
2022-10-09T03:09:27.000Z,99.99
2022-10-09T03:10:27.000Z,99.99
2022-10-09T03:11:27.000Z,99.99
2022-10-09T03:12:27.000Z,99.99
2022-10-09T03:13:27.000Z,99.99
2022-10-09T03:14:27.000Z,99.99
2022-10-09T03:15:27.000Z,99.99
2022-10-09T03:16:27.000Z,99.99
2022-10-09T03:17:27.000Z,99.99
2022-10-09T03:18:26.000Z,99.99
2022-10-09T03:19:26.000Z,99.99
2022-10-09T03:20:26.000Z,99.99
2022-10-09T03:21:26.000Z,99.99
2022-10-09T03:22:26.000Z,99.99
2022-10-09T03:23:26.000Z,99.99
2022-10-09T03:24:26.000Z,99.99
2022-10-09T03:25:26.000Z,99.99
2022-10-09T03:26:26.000Z,99.99
2022-10-09T03:26:26.000Z,99.99
2022-10-09T03:27:26.000Z,99.99
2022-10-09T03:27:26.000Z,99.99
2022-10-09T03:28:26.000Z,99.99
2022-10-09T03:28:26.000Z,99.99
2022-10-09T03:29:26.000Z,99.99
2022-10-09T03:29:26.000Z,99.99
2022-10-09T03:30:26.000Z,99.99
2022-10-09T03:30:26.000Z,99.99
2022-10-09T03:31:26.000Z,99.99
2022-10-09T03:32:26.000Z,99.99
2022-10-09T03:33:26.000Z,99.99
2022-10-09T03:34:26.000Z,99.99
2022-10-09T03:35:26.000Z,99.99
2022-10-09T03:36:26.000Z,99.99
2022-10-09T03:37:26.000Z,99.99
2022-10-09T03:38:26.000Z,99.99
2022-10-09T03:39:26.000Z,99.99
2022-10-09T03:40:26.000Z,99.99
2022-10-09T03:41:26.000Z,99.99
2022-10-09T03:42:26.000Z,99.99
2022-10-09T03:43:26.000Z,99.99
2022-10-09T03:44:26.000Z,99.99
2022-10-09T03:45:26.000Z,99.99
2022-10-09T03:46:26.000Z,99.99
2022-10-09T03:47:26.000Z,99.99
2022-10-09T03:48:26.000Z,99.99
2022-10-09T03:49:26.000Z,99.99
2022-10-09T03:50:26.000Z,99.99
2022-10-09T03:51:26.000Z,99.99
2022-10-09T03:52:26.000Z,99.99
2022-10-09T03:53:26.000Z,99.99
2022-10-09T03:54:26.000Z,99.99
2022-10-09T03:55:26.000Z,99.99
2022-10-09T03:56:26.000Z,99.99
2022-10-09T03:57:26.000Z,99.99
2022-10-09T03:58:26.000Z,99.99
2022-10-09T03:59:26.000Z,99.99
2022-10-09T04:00:26.000Z,99.99
2022-10-09T04:01:26.000Z,99.99
2022-10-09T04:02:26.000Z,99.99
2022-10-09T04:03:26.000Z,99.99
2022-10-09T04:04:26.000Z,99.99
2022-10-09T04:05:26.000Z,99.99
2022-10-09T04:06:26.000Z,99.99
2022-10-09T04:07:26.000Z,99.99
2022-10-09T04:08:26.000Z,99.99
2022-10-09T04:09:26.000Z,99.99
2022-10-09T04:10:26.000Z,99.99
2022-10-09T04:11:26.000Z,99.99
2022-10-09T04:12:26.000Z,99.99
2022-10-09T04:13:26.000Z,99.99
2022-10-09T04:14:26.000Z,99.99
2022-10-09T04:15:26.000Z,99.99
2022-10-09T04:16:26.000Z,99.99
2022-10-09T04:17:26.000Z,99.99
2022-10-09T04:18:26.000Z,99.99
2022-10-09T04:19:26.000Z,99.99
2022-10-09T04:20:26.000Z,99.99
2022-10-09T04:21:26.000Z,99.99
2022-10-09T04:22:26.000Z,99.99
2022-10-09T04:23:26.000Z,99.99
2022-10-09T04:24:26.000Z,99.99
2022-10-09T04:25:26.000Z,99.99
2022-10-09T04:26:26.000Z,99.99
2022-10-09T04:27:26.000Z,99.99
2022-10-09T04:28:26.000Z,99.99
2022-10-09T04:29:26.000Z,99.99
2022-10-09T04:30:26.000Z,99.99
2022-10-09T04:31:26.000Z,99.99
2022-10-09T04:32:26.000Z,99.99
2022-10-09T04:33:25.000Z,99.99
2022-10-09T04:34:25.000Z,99.99
2022-10-09T04:35:25.000Z,99.99
2022-10-09T04:36:25.000Z,99.99
2022-10-09T04:37:25.000Z,99.99
2022-10-09T04:38:25.000Z,99.99
2022-10-09T04:39:25.000Z,99.99
2022-10-09T04:40:25.000Z,99.99
2022-10-09T04:41:25.000Z,99.99
2022-10-09T04:42:25.000Z,99.99
2022-10-09T04:43:25.000Z,99.99
2022-10-09T04:44:25.000Z,99.99
2022-10-09T04:45:25.000Z,99.99
2022-10-09T04:46:25.000Z,99.99
2022-10-09T04:47:25.000Z,99.99
2022-10-09T04:48:25.000Z,99.99
2022-10-09T04:49:25.000Z,99.99
2022-10-09T04:50:25.000Z,99.99
2022-10-09T04:51:25.000Z,99.99
2022-10-09T04:52:25.000Z,99.99
2022-10-09T04:53:25.000Z,99.99
2022-10-09T04:54:25.000Z,99.99
2022-10-09T04:55:25.000Z,99.99
2022-10-09T04:56:25.000Z,99.99
2022-10-09T04:56:25.000Z,99.99
2022-10-09T04:57:25.000Z,99.99
2022-10-09T04:57:25.000Z,99.99
2022-10-09T04:58:25.000Z,99.99
2022-10-09T04:58:25.000Z,99.99
2022-10-09T04:59:25.000Z,99.99
2022-10-09T04:59:25.000Z,99.99
2022-10-09T05:00:25.000Z,99.99
2022-10-09T05:00:25.000Z,99.99
2022-10-09T05:01:25.000Z,99.99
2022-10-09T05:02:25.000Z,99.99
2022-10-09T05:03:25.000Z,99.99
2022-10-09T05:04:25.000Z,99.99
2022-10-09T05:05:25.000Z,99.99
2022-10-09T05:06:25.000Z,99.99
2022-10-09T05:07:25.000Z,99.99
2022-10-09T05:08:25.000Z,99.99
2022-10-09T05:09:25.000Z,99.99
2022-10-09T05:10:25.000Z,99.99
2022-10-09T05:11:25.000Z,99.99
2022-10-09T05:11:25.000Z,99.99
2022-10-09T05:12:25.000Z,99.99
2022-10-09T05:12:25.000Z,99.99
2022-10-09T05:13:25.000Z,99.99
2022-10-09T05:13:25.000Z,99.99
2022-10-09T05:14:25.000Z,99.99
2022-10-09T05:14:25.000Z,99.99
2022-10-09T05:15:25.000Z,99.99
2022-10-09T05:15:25.000Z,99.99
2022-10-09T05:16:25.000Z,99.99
2022-10-09T05:17:25.000Z,99.99
2022-10-09T05:18:25.000Z,99.99
2022-10-09T05:19:25.000Z,99.99
2022-10-09T05:20:25.000Z,99.99
2022-10-09T05:21:25.000Z,99.99
2022-10-09T05:22:25.000Z,99.99
2022-10-09T05:23:25.000Z,99.99
2022-10-09T05:24:25.000Z,99.99
2022-10-09T05:25:25.000Z,99.99
2022-10-09T05:26:25.000Z,99.99
2022-10-09T05:27:25.000Z,99.99
2022-10-09T05:28:25.000Z,99.99
2022-10-09T05:29:25.000Z,99.99
2022-10-09T05:30:25.000Z,99.99
2022-10-09T05:31:25.000Z,99.99
2022-10-09T05:32:25.000Z,99.99
2022-10-09T05:33:25.000Z,99.99
2022-10-09T05:34:25.000Z,99.99
2022-10-09T05:35:25.000Z,99.99
2022-10-09T05:36:25.000Z,99.99
2022-10-09T05:37:25.000Z,99.99
2022-10-09T05:38:25.000Z,99.99
2022-10-09T05:39:25.000Z,99.99
2022-10-09T05:40:25.000Z,99.99
2022-10-09T05:41:25.000Z,99.99
2022-10-09T05:42:25.000Z,99.99
2022-10-09T05:43:25.000Z,99.99
2022-10-09T05:44:25.000Z,99.99
2022-10-09T05:45:25.000Z,99.99
2022-10-09T05:46:25.000Z,99.99
2022-10-09T05:47:25.000Z,99.99
2022-10-09T05:48:25.000Z,99.99
2022-10-09T05:49:24.000Z,99.99
2022-10-09T05:50:24.000Z,99.99
2022-10-09T05:51:24.000Z,99.99
2022-10-09T05:52:24.000Z,99.99
2022-10-09T05:53:24.000Z,99.99
2022-10-09T05:54:24.000Z,99.99
2022-10-09T05:55:24.000Z,99.99
2022-10-09T05:56:24.000Z,99.99
2022-10-09T05:57:24.000Z,99.99
2022-10-09T05:58:24.000Z,99.99
2022-10-09T05:59:24.000Z,99.99
2022-10-09T06:00:24.000Z,99.99
2022-10-09T06:01:24.000Z,99.99
2022-10-09T06:02:24.000Z,99.99
2022-10-09T06:03:24.000Z,99.99
2022-10-09T06:04:24.000Z,99.99
2022-10-09T06:05:24.000Z,99.99
2022-10-09T06:06:24.000Z,99.99
2022-10-09T06:07:24.000Z,99.99
2022-10-09T06:08:24.000Z,99.99
2022-10-09T06:09:24.000Z,99.99
2022-10-09T06:10:24.000Z,99.99
2022-10-09T06:11:24.000Z,99.99
2022-10-09T06:12:24.000Z,99.99
2022-10-09T06:13:24.000Z,99.99
2022-10-09T06:14:24.000Z,99.99
2022-10-09T06:15:24.000Z,99.99
2022-10-09T06:16:24.000Z,99.99
2022-10-09T06:17:24.000Z,99.99
2022-10-09T06:18:24.000Z,99.99
2022-10-09T06:19:24.000Z,99.99
2022-10-09T06:20:24.000Z,99.99
2022-10-09T06:21:24.000Z,99.99
2022-10-09T06:22:24.000Z,99.99
2022-10-09T06:23:24.000Z,99.99
2022-10-09T06:24:24.000Z,99.99
2022-10-09T06:25:24.000Z,99.99
2022-10-09T06:26:24.000Z,99.99
2022-10-09T06:27:24.000Z,99.99
2022-10-09T06:28:24.000Z,99.99
2022-10-09T06:29:24.000Z,99.99
2022-10-09T06:30:24.000Z,99.99
2022-10-09T06:31:24.000Z,99.99
2022-10-09T06:32:24.000Z,99.99
2022-10-09T06:33:24.000Z,99.99
2022-10-09T06:34:24.000Z,99.99
2022-10-09T06:35:24.000Z,99.99
2022-10-09T06:36:24.000Z,99.99
2022-10-09T06:37:24.000Z,99.99
2022-10-09T06:38:24.000Z,99.99
2022-10-09T06:39:24.000Z,99.99
2022-10-09T06:40:24.000Z,99.99
2022-10-09T06:41:24.000Z,99.99
2022-10-09T06:42:24.000Z,99.99
2022-10-09T06:43:24.000Z,99.99
2022-10-09T06:44:24.000Z,99.99
2022-10-09T06:45:24.000Z,99.99
2022-10-09T06:46:24.000Z,99.99
2022-10-09T06:47:24.000Z,99.99
2022-10-09T06:48:24.000Z,99.99
2022-10-09T06:49:24.000Z,99.99
2022-10-09T06:50:24.000Z,99.99
2022-10-09T06:51:24.000Z,99.99
2022-10-09T06:52:24.000Z,99.99
2022-10-09T06:53:24.000Z,99.99
2022-10-09T06:54:24.000Z,99.99
2022-10-09T06:55:24.000Z,99.99
2022-10-09T06:56:24.000Z,99.99
2022-10-09T06:57:24.000Z,99.99
2022-10-09T06:58:24.000Z,99.99
2022-10-09T06:59:24.000Z,99.99
2022-10-09T07:00:24.000Z,99.99
2022-10-09T07:01:24.000Z,99.99
2022-10-09T07:02:24.000Z,99.99
2022-10-09T07:03:24.000Z,99.99
2022-10-09T07:04:23.000Z,99.99
2022-10-09T07:05:23.000Z,99.99
2022-10-09T07:06:23.000Z,99.99
2022-10-09T07:07:23.000Z,99.99
2022-10-09T07:08:23.000Z,99.99
2022-10-09T07:09:23.000Z,99.99
2022-10-09T07:10:23.000Z,99.99
2022-10-09T07:11:23.000Z,99.99
2022-10-09T07:12:23.000Z,99.99
2022-10-09T07:13:23.000Z,99.99
2022-10-09T07:14:23.000Z,99.99
2022-10-09T07:15:23.000Z,99.99
2022-10-09T07:16:23.000Z,99.99
2022-10-09T07:17:23.000Z,99.99
2022-10-09T07:18:23.000Z,99.99
2022-10-09T07:19:23.000Z,99.99
2022-10-09T07:20:23.000Z,99.99
2022-10-09T07:21:23.000Z,99.99
2022-10-09T07:22:23.000Z,99.99
2022-10-09T07:23:23.000Z,99.99
2022-10-09T07:24:23.000Z,99.99
2022-10-09T07:25:23.000Z,99.99
2022-10-09T07:26:23.000Z,99.99
2022-10-09T07:27:23.000Z,99.99
2022-10-09T07:28:23.000Z,99.99
2022-10-09T07:29:23.000Z,99.99
2022-10-09T07:30:23.000Z,99.99
2022-10-09T07:31:23.000Z,99.99
2022-10-09T07:32:23.000Z,99.99
2022-10-09T07:33:23.000Z,99.62
2022-10-09T07:34:23.000Z,99.62
2022-10-09T07:35:23.000Z,98.90
2022-10-09T07:36:23.000Z,99.10
2022-10-09T07:37:23.000Z,98.90
2022-10-09T07:38:23.000Z,98.79
2022-10-09T07:39:23.000Z,98.85
2022-10-09T07:40:23.000Z,98.65
2022-10-09T07:41:23.000Z,98.33
2022-10-09T07:42:23.000Z,98.13
2022-10-09T07:43:23.000Z,98.03
2022-10-09T07:44:23.000Z,98.03
2022-10-09T07:45:23.000Z,97.88
2022-10-09T07:46:23.000Z,97.47
2022-10-09T07:47:23.000Z,97.78
2022-10-09T07:48:23.000Z,97.57
2022-10-09T07:49:23.000Z,96.75
2022-10-09T07:50:23.000Z,96.65
2022-10-09T07:51:23.000Z,96.70
2022-10-09T07:52:23.000Z,96.70
2022-10-09T07:53:23.000Z,96.70
2022-10-09T07:54:23.000Z,96.60
2022-10-09T07:55:23.000Z,96.19
2022-10-09T07:56:23.000Z,96.15
2022-10-09T07:57:23.000Z,96.15
2022-10-09T07:58:23.000Z,96.35
2022-10-09T07:59:23.000Z,96.35
2022-10-09T08:00:23.000Z,96.10
2022-10-09T08:01:23.000Z,96.20
2022-10-09T08:02:23.000Z,96.10
2022-10-09T08:03:23.000Z,96.00
2022-10-09T08:04:23.000Z,95.49
2022-10-09T08:05:23.000Z,94.93
2022-10-09T08:06:23.000Z,94.32
2022-10-09T08:07:23.000Z,94.52
2022-10-09T08:08:23.000Z,94.32
2022-10-09T08:09:23.000Z,94.32
2022-10-09T08:10:23.000Z,94.17
2022-10-09T08:11:23.000Z,94.17
2022-10-09T08:12:23.000Z,94.17
2022-10-09T08:13:23.000Z,94.17
2022-10-09T08:14:23.000Z,93.92
2022-10-09T08:15:23.000Z,93.30
2022-10-09T08:16:23.000Z,93.10
2022-10-09T08:17:23.000Z,92.59
2022-10-09T08:18:22.000Z,92.69
2022-10-09T08:19:22.000Z,92.59
2022-10-09T08:20:22.000Z,92.08
2022-10-09T08:21:22.000Z,92.28
2022-10-09T08:22:22.000Z,91.42
2022-10-09T08:23:22.000Z,91.01
2022-10-09T08:24:22.000Z,91.11
2022-10-09T08:25:22.000Z,91.42
2022-10-09T08:26:22.000Z,91.42
2022-10-09T08:27:22.000Z,90.86
2022-10-09T08:28:22.000Z,91.17
2022-10-09T08:29:22.000Z,91.27
2022-10-09T08:30:22.000Z,91.07
2022-10-09T08:31:22.000Z,91.13
2022-10-09T08:32:22.000Z,90.52
2022-10-09T08:33:22.000Z,90.00
2022-10-09T08:34:22.000Z,89.70
2022-10-09T08:35:22.000Z,90.17
2022-10-09T08:36:22.000Z,90.06
2022-10-09T08:37:22.000Z,88.23
2022-10-09T08:38:22.000Z,87.61
2022-10-09T08:39:22.000Z,87.71
2022-10-09T08:40:22.000Z,88.08
2022-10-09T08:41:22.000Z,87.26
2022-10-09T08:42:22.000Z,86.85
2022-10-09T08:43:22.000Z,87.06
2022-10-09T08:44:22.000Z,86.55
2022-10-09T08:45:22.000Z,86.04
2022-10-09T08:46:22.000Z,86.30
2022-10-09T08:47:22.000Z,85.69
2022-10-09T08:48:22.000Z,85.28
2022-10-09T08:49:22.000Z,85.79
2022-10-09T08:50:22.000Z,85.55
2022-10-09T08:51:22.000Z,84.83
2022-10-09T08:52:22.000Z,85.24
2022-10-09T08:53:22.000Z,85.24
2022-10-09T08:54:22.000Z,85.41
2022-10-09T08:55:22.000Z,85.51
2022-10-09T08:56:22.000Z,85.10
2022-10-09T08:57:22.000Z,84.75
2022-10-09T08:58:22.000Z,84.14
2022-10-09T08:59:22.000Z,84.41
2022-10-09T09:00:22.000Z,83.70
2022-10-09T09:01:22.000Z,83.29
2022-10-09T09:02:22.000Z,82.17
2022-10-09T09:03:22.000Z,81.86
2022-10-09T09:04:22.000Z,81.86
2022-10-09T09:05:22.000Z,82.13
2022-10-09T09:06:22.000Z,82.43
2022-10-09T09:07:22.000Z,82.13
2022-10-09T09:08:22.000Z,80.40
2022-10-09T09:09:22.000Z,79.99
2022-10-09T09:10:22.000Z,81.31
2022-10-09T09:11:22.000Z,81.17
2022-10-09T09:12:22.000Z,81.58
2022-10-09T09:13:22.000Z,79.85
2022-10-09T09:14:22.000Z,79.81
2022-10-09T09:15:22.000Z,81.24
2022-10-09T09:16:22.000Z,78.69
2022-10-09T09:17:22.000Z,78.49
2022-10-09T09:18:22.000Z,78.89
2022-10-09T09:19:22.000Z,77.53
2022-10-09T09:20:22.000Z,78.49
2022-10-09T09:21:22.000Z,78.05
2022-10-09T09:22:22.000Z,78.35
2022-10-09T09:23:22.000Z,78.55
2022-10-09T09:24:22.000Z,78.66
2022-10-09T09:25:22.000Z,78.05
2022-10-09T09:26:22.000Z,77.29
2022-10-09T09:27:22.000Z,77.29
2022-10-09T09:28:22.000Z,77.70
2022-10-09T09:29:22.000Z,77.20
2022-10-09T09:30:22.000Z,77.50
2022-10-09T09:31:22.000Z,77.67
2022-10-09T09:32:21.000Z,76.68
2022-10-09T09:33:21.000Z,78.08
2022-10-09T09:34:21.000Z,78.08
2022-10-09T09:35:21.000Z,77.97
2022-10-09T09:36:21.000Z,75.90
2022-10-09T09:37:21.000Z,74.79
2022-10-09T09:38:21.000Z,74.04
2022-10-09T09:39:21.000Z,75.73
2022-10-09T09:40:21.000Z,73.70
2022-10-09T09:41:21.000Z,73.06
2022-10-09T09:42:21.000Z,73.06
2022-10-09T09:43:21.000Z,71.23
2022-10-09T09:44:21.000Z,71.40
2022-10-09T09:45:21.000Z,71.50
2022-10-09T09:46:21.000Z,71.26
2022-10-09T09:47:21.000Z,70.52
2022-10-09T09:48:21.000Z,69.81
2022-10-09T09:49:21.000Z,70.08
2022-10-09T09:50:21.000Z,68.46
2022-10-09T09:51:21.000Z,67.52
2022-10-09T09:52:21.000Z,68.63
2022-10-09T09:53:21.000Z,67.18
2022-10-09T09:54:21.000Z,66.55
2022-10-09T09:55:21.000Z,67.86
2022-10-09T09:56:21.000Z,66.01
2022-10-09T09:57:21.000Z,65.44
2022-10-09T09:58:21.000Z,63.59
2022-10-09T09:59:21.000Z,62.85
2022-10-09T10:00:21.000Z,62.55
2022-10-09T10:01:21.000Z,61.95
2022-10-09T10:02:21.000Z,62.32
2022-10-09T10:03:21.000Z,62.83
2022-10-09T10:04:21.000Z,62.43
2022-10-09T10:05:21.000Z,62.43
2022-10-09T10:06:21.000Z,61.79
2022-10-09T10:07:21.000Z,62.29
2022-10-09T10:08:21.000Z,60.61
2022-10-09T10:09:21.000Z,61.72
2022-10-09T10:10:21.000Z,60.74
2022-10-09T10:11:21.000Z,61.85
2022-10-09T10:12:21.000Z,61.44
2022-10-09T10:13:21.000Z,63.87
2022-10-09T10:14:21.000Z,63.26
2022-10-09T10:15:21.000Z,63.56
2022-10-09T10:16:21.000Z,61.01
2022-10-09T10:17:21.000Z,60.51
2022-10-09T10:18:21.000Z,62.09
2022-10-09T10:19:21.000Z,60.48
2022-10-09T10:20:21.000Z,59.24
2022-10-09T10:21:21.000Z,58.81
2022-10-09T10:22:21.000Z,59.79
2022-10-09T10:23:21.000Z,57.65
2022-10-09T10:24:21.000Z,57.45
2022-10-09T10:25:21.000Z,57.65
2022-10-09T10:26:21.000Z,57.52
2022-10-09T10:27:21.000Z,57.32
2022-10-09T10:28:21.000Z,55.58
2022-10-09T10:29:21.000Z,55.99
2022-10-09T10:30:21.000Z,55.48
2022-10-09T10:31:21.000Z,55.38
2022-10-09T10:32:21.000Z,54.98
2022-10-09T10:33:21.000Z,55.31
2022-10-09T10:34:21.000Z,55.83
2022-10-09T10:35:21.000Z,56.57
2022-10-09T10:36:21.000Z,56.60
2022-10-09T10:37:21.000Z,57.10
2022-10-09T10:38:21.000Z,56.77
2022-10-09T10:39:21.000Z,56.20
2022-10-09T10:40:21.000Z,57.40
2022-10-09T10:41:21.000Z,58.61
2022-10-09T10:42:21.000Z,56.47
2022-10-09T10:43:21.000Z,55.26
2022-10-09T10:44:21.000Z,55.08
2022-10-09T10:45:20.000Z,55.79
2022-10-09T10:46:20.000Z,55.69
2022-10-09T10:47:20.000Z,56.32
2022-10-09T10:48:20.000Z,55.62
2022-10-09T10:49:20.000Z,56.42
2022-10-09T10:50:20.000Z,56.32
2022-10-09T10:51:20.000Z,56.72
2022-10-09T10:52:20.000Z,56.42
2022-10-09T10:53:20.000Z,56.62
2022-10-09T10:54:20.000Z,55.71
2022-10-09T10:55:20.000Z,57.12
2022-10-09T10:56:20.000Z,56.82
2022-10-09T10:57:20.000Z,57.32
2022-10-09T10:58:20.000Z,58.41
2022-10-09T10:59:20.000Z,55.39
2022-10-09T11:00:20.000Z,56.09
2022-10-09T11:01:20.000Z,54.68
2022-10-09T11:02:20.000Z,55.69
2022-10-09T11:03:20.000Z,55.06
2022-10-09T11:04:20.000Z,56.47
2022-10-09T11:05:20.000Z,56.64
2022-10-09T11:06:20.000Z,55.51
2022-10-09T11:07:20.000Z,53.80
2022-10-09T11:08:20.000Z,54.33
2022-10-09T11:09:20.000Z,54.53
2022-10-09T11:10:20.000Z,55.23
2022-10-09T11:11:20.000Z,55.83
2022-10-09T11:12:20.000Z,55.54
2022-10-09T11:13:20.000Z,54.93
2022-10-09T11:14:20.000Z,55.31
2022-10-09T11:15:20.000Z,55.51
2022-10-09T11:16:20.000Z,55.58
2022-10-09T11:17:20.000Z,54.88
2022-10-09T11:18:20.000Z,52.80
2022-10-09T11:19:20.000Z,53.90
2022-10-09T11:20:20.000Z,54.30
2022-10-09T11:21:20.000Z,53.50
2022-10-09T11:22:20.000Z,53.30
2022-10-09T11:23:20.000Z,53.63
2022-10-09T11:24:20.000Z,53.20
2022-10-09T11:25:20.000Z,52.47
2022-10-09T11:26:20.000Z,52.47
2022-10-09T11:27:20.000Z,52.87
2022-10-09T11:28:20.000Z,51.46
2022-10-09T11:29:20.000Z,51.56
2022-10-09T11:30:20.000Z,52.17
2022-10-09T11:31:20.000Z,51.26
2022-10-09T11:32:20.000Z,51.26
2022-10-09T11:33:20.000Z,53.34
2022-10-09T11:34:20.000Z,51.04
2022-10-09T11:35:20.000Z,50.23
2022-10-09T11:36:20.000Z,50.23
2022-10-09T11:37:20.000Z,49.93
2022-10-09T11:38:20.000Z,50.53
2022-10-09T11:39:20.000Z,51.14
2022-10-09T11:40:20.000Z,51.56
2022-10-09T11:41:20.000Z,52.69
2022-10-09T11:42:20.000Z,53.72
2022-10-09T11:43:20.000Z,53.83
2022-10-09T11:44:20.000Z,53.30
2022-10-09T11:45:20.000Z,52.77
2022-10-09T11:46:20.000Z,54.55
2022-10-09T11:47:20.000Z,51.64
2022-10-09T11:48:20.000Z,51.81
2022-10-09T11:49:20.000Z,51.81
2022-10-09T11:50:20.000Z,52.49
2022-10-09T11:51:20.000Z,52.22
2022-10-09T11:52:20.000Z,51.11
2022-10-09T11:53:20.000Z,51.94
2022-10-09T11:54:20.000Z,51.64
2022-10-09T11:55:20.000Z,51.26
2022-10-09T11:56:20.000Z,50.76
2022-10-09T11:57:20.000Z,51.49
2022-10-09T11:58:19.000Z,52.39
2022-10-09T11:59:19.000Z,52.49
2022-10-09T12:00:19.000Z,51.29
2022-10-09T12:01:19.000Z,51.91
2022-10-09T12:02:19.000Z,51.64
2022-10-09T12:03:19.000Z,52.84
2022-10-09T12:04:19.000Z,53.75
2022-10-09T12:05:19.000Z,53.72
2022-10-09T12:06:19.000Z,52.19
2022-10-09T12:07:19.000Z,52.49
2022-10-09T12:08:19.000Z,51.68
2022-10-09T12:09:19.000Z,51.86
2022-10-09T12:10:19.000Z,51.26
2022-10-09T12:11:19.000Z,51.59
2022-10-09T12:12:19.000Z,52.26
2022-10-09T12:13:19.000Z,51.56
2022-10-09T12:14:19.000Z,52.87
2022-10-09T12:15:19.000Z,51.06
2022-10-09T12:16:19.000Z,51.06
2022-10-09T12:17:19.000Z,49.98
2022-10-09T12:18:19.000Z,50.89
2022-10-09T12:19:19.000Z,51.29
2022-10-09T12:20:19.000Z,51.31
2022-10-09T12:21:19.000Z,52.31
2022-10-09T12:22:19.000Z,50.51
2022-10-09T12:23:19.000Z,49.70
2022-10-09T12:24:19.000Z,49.60
2022-10-09T12:25:19.000Z,50.81
2022-10-09T12:26:19.000Z,50.71
2022-10-09T12:27:19.000Z,50.48
2022-10-09T12:28:19.000Z,50.98
2022-10-09T12:29:19.000Z,51.06
2022-10-09T12:30:19.000Z,48.65
2022-10-09T12:31:19.000Z,49.05
2022-10-09T12:32:19.000Z,49.45
2022-10-09T12:33:19.000Z,49.15
2022-10-09T12:34:19.000Z,49.05
2022-10-09T12:35:19.000Z,49.95
2022-10-09T12:36:19.000Z,49.77
2022-10-09T12:37:19.000Z,49.90